sensor_id;sensor_type;location;lat;lon;timestamp;P1;durP1;ratioP1;P2;durP2;ratioP2
12441;SDS011;6285;48.804;9.220;2023-07-22T00:01:11;4.93;;;2.63;;
12441;SDS011;6285;48.804;9.220;2023-07-22T00:03:38;3.25;;;2.40;;
12441;SDS011;6285;48.804;9.220;2023-07-22T00:06:05;5.70;;;2.55;;
12441;SDS011;6285;48.804;9.220;2023-07-22T00:08:33;3.38;;;2.67;;
12441;SDS011;6285;48.804;9.220;2023-07-22T00:11:00;3.22;;;2.88;;
12441;SDS011;6285;48.804;9.220;2023-07-22T00:13:27;3.70;;;2.60;;
12441;SDS011;6285;48.804;9.220;2023-07-22T00:15:56;4.05;;;3.17;;
12441;SDS011;6285;48.804;9.220;2023-07-22T00:18:24;4.25;;;2.50;;
12441;SDS011;6285;48.804;9.220;2023-07-22T00:20:52;3.97;;;2.88;;
12441;SDS011;6285;48.804;9.220;2023-07-22T00:23:19;4.03;;;2.88;;
12441;SDS011;6285;48.804;9.220;2023-07-22T00:25:47;3.80;;;3.00;;
12441;SDS011;6285;48.804;9.220;2023-07-22T00:28:14;4.05;;;3.15;;
12441;SDS011;6285;48.804;9.220;2023-07-22T00:30:43;4.70;;;2.92;;
12441;SDS011;6285;48.804;9.220;2023-07-22T00:33:12;4.78;;;2.75;;
12441;SDS011;6285;48.804;9.220;2023-07-22T00:35:39;6.53;;;3.22;;
12441;SDS011;6285;48.804;9.220;2023-07-22T00:38:06;2.92;;;2.63;;
12441;SDS011;6285;48.804;9.220;2023-07-22T00:40:34;3.58;;;3.10;;
12441;SDS011;6285;48.804;9.220;2023-07-22T00:43:02;5.03;;;3.22;;
12441;SDS011;6285;48.804;9.220;2023-07-22T00:45:32;3.40;;;3.00;;
12441;SDS011;6285;48.804;9.220;2023-07-22T00:47:59;6.30;;;3.17;;
12441;SDS011;6285;48.804;9.220;2023-07-22T00:50:28;5.18;;;4.13;;
12441;SDS011;6285;48.804;9.220;2023-07-22T00:52:55;6.72;;;4.20;;
12441;SDS011;6285;48.804;9.220;2023-07-22T00:55:22;6.65;;;4.50;;
12441;SDS011;6285;48.804;9.220;2023-07-22T00:57:49;9.60;;;4.18;;
12441;SDS011;6285;48.804;9.220;2023-07-22T01:00:16;7.40;;;4.47;;
12441;SDS011;6285;48.804;9.220;2023-07-22T01:02:43;6.65;;;3.92;;
12441;SDS011;6285;48.804;9.220;2023-07-22T01:05:11;5.55;;;4.10;;
12441;SDS011;6285;48.804;9.220;2023-07-22T01:07:40;6.15;;;4.30;;
12441;SDS011;6285;48.804;9.220;2023-07-22T01:10:09;5.68;;;4.03;;
12441;SDS011;6285;48.804;9.220;2023-07-22T01:12:36;5.68;;;4.13;;
12441;SDS011;6285;48.804;9.220;2023-07-22T01:15:04;6.30;;;4.60;;
12441;SDS011;6285;48.804;9.220;2023-07-22T01:17:32;6.00;;;3.97;;
12441;SDS011;6285;48.804;9.220;2023-07-22T01:20:00;6.35;;;5.22;;
12441;SDS011;6285;48.804;9.220;2023-07-22T01:22:28;5.38;;;4.80;;
12441;SDS011;6285;48.804;9.220;2023-07-22T01:24:57;9.70;;;5.25;;
12441;SDS011;6285;48.804;9.220;2023-07-22T01:30:28;6.88;;;4.75;;
12441;SDS011;6285;48.804;9.220;2023-07-22T01:32:55;4.88;;;4.30;;
12441;SDS011;6285;48.804;9.220;2023-07-22T01:35:22;6.32;;;4.38;;
12441;SDS011;6285;48.804;9.220;2023-07-22T01:37:51;6.05;;;4.18;;
12441;SDS011;6285;48.804;9.220;2023-07-22T01:40:19;5.68;;;4.40;;
12441;SDS011;6285;48.804;9.220;2023-07-22T01:42:48;7.70;;;4.13;;
12441;SDS011;6285;48.804;9.220;2023-07-22T01:45:16;8.57;;;4.78;;
12441;SDS011;6285;48.804;9.220;2023-07-22T01:47:43;5.93;;;4.40;;
12441;SDS011;6285;48.804;9.220;2023-07-22T01:50:10;8.30;;;4.45;;
12441;SDS011;6285;48.804;9.220;2023-07-22T01:52:38;7.78;;;4.40;;
12441;SDS011;6285;48.804;9.220;2023-07-22T01:55:05;7.68;;;4.93;;
12441;SDS011;6285;48.804;9.220;2023-07-22T01:57:37;5.03;;;3.88;;
12441;SDS011;6285;48.804;9.220;2023-07-22T02:00:05;5.18;;;4.18;;
12441;SDS011;6285;48.804;9.220;2023-07-22T02:02:32;8.45;;;4.20;;
12441;SDS011;6285;48.804;9.220;2023-07-22T02:05:00;5.05;;;3.72;;
12441;SDS011;6285;48.804;9.220;2023-07-22T02:07:27;6.05;;;3.70;;
12441;SDS011;6285;48.804;9.220;2023-07-22T02:09:54;5.47;;;3.80;;
12441;SDS011;6285;48.804;9.220;2023-07-22T02:12:21;5.07;;;3.67;;
12441;SDS011;6285;48.804;9.220;2023-07-22T02:14:50;5.20;;;4.00;;
12441;SDS011;6285;48.804;9.220;2023-07-22T02:17:17;6.10;;;4.40;;
12441;SDS011;6285;48.804;9.220;2023-07-22T02:19:45;6.13;;;4.25;;
12441;SDS011;6285;48.804;9.220;2023-07-22T02:22:12;7.10;;;4.60;;
12441;SDS011;6285;48.804;9.220;2023-07-22T02:24:39;8.02;;;4.88;;
12441;SDS011;6285;48.804;9.220;2023-07-22T02:27:06;8.27;;;4.40;;
12441;SDS011;6285;48.804;9.220;2023-07-22T02:29:34;8.38;;;5.22;;
12441;SDS011;6285;48.804;9.220;2023-07-22T02:32:03;5.95;;;5.00;;
12441;SDS011;6285;48.804;9.220;2023-07-22T02:34:32;7.88;;;4.95;;
12441;SDS011;6285;48.804;9.220;2023-07-22T02:36:59;9.18;;;5.05;;
12441;SDS011;6285;48.804;9.220;2023-07-22T02:39:26;5.80;;;4.65;;
12441;SDS011;6285;48.804;9.220;2023-07-22T02:41:53;7.55;;;4.35;;
12441;SDS011;6285;48.804;9.220;2023-07-22T02:44:21;7.13;;;4.85;;
12441;SDS011;6285;48.804;9.220;2023-07-22T02:46:48;6.70;;;4.70;;
12441;SDS011;6285;48.804;9.220;2023-07-22T02:49:16;8.20;;;5.05;;
12441;SDS011;6285;48.804;9.220;2023-07-22T02:51:44;8.02;;;4.45;;
12441;SDS011;6285;48.804;9.220;2023-07-22T02:54:11;6.63;;;4.93;;
12441;SDS011;6285;48.804;9.220;2023-07-22T02:56:39;8.07;;;4.38;;
12441;SDS011;6285;48.804;9.220;2023-07-22T02:59:06;6.75;;;4.90;;
12441;SDS011;6285;48.804;9.220;2023-07-22T03:01:34;7.40;;;4.53;;
12441;SDS011;6285;48.804;9.220;2023-07-22T03:04:01;6.72;;;4.70;;
12441;SDS011;6285;48.804;9.220;2023-07-22T03:06:30;6.22;;;4.57;;
12441;SDS011;6285;48.804;9.220;2023-07-22T03:08:57;10.63;;;5.50;;
12441;SDS011;6285;48.804;9.220;2023-07-22T03:11:24;7.95;;;5.85;;
12441;SDS011;6285;48.804;9.220;2023-07-22T03:13:52;9.90;;;5.93;;
12441;SDS011;6285;48.804;9.220;2023-07-22T03:16:19;11.20;;;6.38;;
12441;SDS011;6285;48.804;9.220;2023-07-22T03:18:47;10.20;;;6.43;;
12441;SDS011;6285;48.804;9.220;2023-07-22T03:21:14;9.85;;;6.20;;
12441;SDS011;6285;48.804;9.220;2023-07-22T03:23:42;9.32;;;5.93;;
12441;SDS011;6285;48.804;9.220;2023-07-22T03:26:09;9.48;;;6.03;;
12441;SDS011;6285;48.804;9.220;2023-07-22T03:28:37;7.88;;;5.47;;
12441;SDS011;6285;48.804;9.220;2023-07-22T03:31:06;5.95;;;4.57;;
12441;SDS011;6285;48.804;9.220;2023-07-22T03:33:34;5.72;;;4.30;;
12441;SDS011;6285;48.804;9.220;2023-07-22T03:36:01;6.53;;;4.30;;
12441;SDS011;6285;48.804;9.220;2023-07-22T03:38:28;8.43;;;4.20;;
12441;SDS011;6285;48.804;9.220;2023-07-22T03:40:57;6.50;;;4.20;;
12441;SDS011;6285;48.804;9.220;2023-07-22T03:43:24;5.20;;;3.85;;
12441;SDS011;6285;48.804;9.220;2023-07-22T03:45:51;4.93;;;3.70;;
12441;SDS011;6285;48.804;9.220;2023-07-22T03:48:18;4.32;;;3.92;;
12441;SDS011;6285;48.804;9.220;2023-07-22T03:50:45;6.43;;;4.13;;
12441;SDS011;6285;48.804;9.220;2023-07-22T03:53:12;5.57;;;3.88;;
12441;SDS011;6285;48.804;9.220;2023-07-22T03:55:40;5.63;;;4.07;;
12441;SDS011;6285;48.804;9.220;2023-07-22T03:58:08;4.55;;;3.70;;
12441;SDS011;6285;48.804;9.220;2023-07-22T04:00:37;3.92;;;3.53;;
12441;SDS011;6285;48.804;9.220;2023-07-22T04:03:04;5.10;;;4.07;;
12441;SDS011;6285;48.804;9.220;2023-07-22T04:05:31;5.85;;;3.75;;
12441;SDS011;6285;48.804;9.220;2023-07-22T04:07:58;4.40;;;3.80;;
12441;SDS011;6285;48.804;9.220;2023-07-22T04:10:25;7.18;;;4.50;;
12441;SDS011;6285;48.804;9.220;2023-07-22T04:12:52;8.20;;;4.40;;
12441;SDS011;6285;48.804;9.220;2023-07-22T04:15:21;5.53;;;3.92;;
12441;SDS011;6285;48.804;9.220;2023-07-22T04:17:48;6.28;;;3.72;;
12441;SDS011;6285;48.804;9.220;2023-07-22T04:20:15;6.50;;;3.90;;
12441;SDS011;6285;48.804;9.220;2023-07-22T04:22:43;5.57;;;3.97;;
12441;SDS011;6285;48.804;9.220;2023-07-22T04:25:10;5.75;;;3.80;;
12441;SDS011;6285;48.804;9.220;2023-07-22T04:27:37;7.57;;;4.20;;
12441;SDS011;6285;48.804;9.220;2023-07-22T04:30:05;5.82;;;4.00;;
12441;SDS011;6285;48.804;9.220;2023-07-22T04:32:34;4.65;;;3.85;;
12441;SDS011;6285;48.804;9.220;2023-07-22T04:35:01;5.72;;;3.75;;
12441;SDS011;6285;48.804;9.220;2023-07-22T04:37:30;5.80;;;4.10;;
12441;SDS011;6285;48.804;9.220;2023-07-22T04:39:57;7.40;;;3.78;;
12441;SDS011;6285;48.804;9.220;2023-07-22T04:42:24;4.95;;;3.83;;
12441;SDS011;6285;48.804;9.220;2023-07-22T04:44:52;6.68;;;3.40;;
12441;SDS011;6285;48.804;9.220;2023-07-22T04:47:19;4.57;;;3.70;;
12441;SDS011;6285;48.804;9.220;2023-07-22T04:49:48;4.25;;;3.38;;
12441;SDS011;6285;48.804;9.220;2023-07-22T04:52:15;5.32;;;4.15;;
12441;SDS011;6285;48.804;9.220;2023-07-22T04:54:42;5.50;;;3.25;;
12441;SDS011;6285;48.804;9.220;2023-07-22T04:57:12;5.90;;;3.90;;
12441;SDS011;6285;48.804;9.220;2023-07-22T04:59:39;4.72;;;3.80;;
12441;SDS011;6285;48.804;9.220;2023-07-22T05:02:06;5.95;;;3.47;;
12441;SDS011;6285;48.804;9.220;2023-07-22T05:04:33;5.20;;;4.03;;
12441;SDS011;6285;48.804;9.220;2023-07-22T05:07:02;4.90;;;3.60;;
12441;SDS011;6285;48.804;9.220;2023-07-22T05:09:29;4.78;;;3.30;;
12441;SDS011;6285;48.804;9.220;2023-07-22T05:11:56;4.80;;;3.15;;
12441;SDS011;6285;48.804;9.220;2023-07-22T05:14:24;4.15;;;3.40;;
12441;SDS011;6285;48.804;9.220;2023-07-22T05:16:51;4.47;;;3.33;;
12441;SDS011;6285;48.804;9.220;2023-07-22T05:19:18;4.43;;;3.20;;
12441;SDS011;6285;48.804;9.220;2023-07-22T05:21:45;7.57;;;3.47;;
12441;SDS011;6285;48.804;9.220;2023-07-22T05:24:14;6.10;;;3.45;;
12441;SDS011;6285;48.804;9.220;2023-07-22T05:26:41;6.60;;;3.40;;
12441;SDS011;6285;48.804;9.220;2023-07-22T05:29:08;4.32;;;3.20;;
12441;SDS011;6285;48.804;9.220;2023-07-22T05:31:36;5.03;;;3.38;;
12441;SDS011;6285;48.804;9.220;2023-07-22T05:34:03;6.43;;;3.20;;
12441;SDS011;6285;48.804;9.220;2023-07-22T05:36:31;4.95;;;3.25;;
12441;SDS011;6285;48.804;9.220;2023-07-22T05:38:58;3.40;;;2.90;;
12441;SDS011;6285;48.804;9.220;2023-07-22T05:41:27;4.22;;;2.88;;
12441;SDS011;6285;48.804;9.220;2023-07-22T05:43:54;4.32;;;3.00;;
12441;SDS011;6285;48.804;9.220;2023-07-22T05:46:21;4.57;;;3.15;;
12441;SDS011;6285;48.804;9.220;2023-07-22T05:48:48;5.05;;;3.03;;
12441;SDS011;6285;48.804;9.220;2023-07-22T05:51:15;4.70;;;3.20;;
12441;SDS011;6285;48.804;9.220;2023-07-22T05:53:43;3.25;;;2.95;;
12441;SDS011;6285;48.804;9.220;2023-07-22T05:56:11;4.35;;;3.15;;
12441;SDS011;6285;48.804;9.220;2023-07-22T05:58:39;3.65;;;3.03;;
12441;SDS011;6285;48.804;9.220;2023-07-22T06:01:06;6.32;;;2.95;;
12441;SDS011;6285;48.804;9.220;2023-07-22T06:03:34;5.47;;;2.95;;
12441;SDS011;6285;48.804;9.220;2023-07-22T06:06:01;3.70;;;2.55;;
12441;SDS011;6285;48.804;9.220;2023-07-22T06:08:29;4.72;;;2.97;;
12441;SDS011;6285;48.804;9.220;2023-07-22T06:10:56;4.18;;;3.42;;
12441;SDS011;6285;48.804;9.220;2023-07-22T06:13:23;3.72;;;2.75;;
12441;SDS011;6285;48.804;9.220;2023-07-22T06:15:52;3.03;;;2.45;;
12441;SDS011;6285;48.804;9.220;2023-07-22T06:18:20;3.53;;;2.65;;
12441;SDS011;6285;48.804;9.220;2023-07-22T06:20:47;5.30;;;2.92;;
12441;SDS011;6285;48.804;9.220;2023-07-22T06:23:14;3.70;;;2.92;;
12441;SDS011;6285;48.804;9.220;2023-07-22T06:25:41;5.20;;;3.00;;
12441;SDS011;6285;48.804;9.220;2023-07-22T06:28:08;4.43;;;3.38;;
12441;SDS011;6285;48.804;9.220;2023-07-22T06:30:35;3.47;;;2.70;;
12441;SDS011;6285;48.804;9.220;2023-07-22T06:33:04;5.25;;;2.83;;
12441;SDS011;6285;48.804;9.220;2023-07-22T06:35:31;5.82;;;2.70;;
12441;SDS011;6285;48.804;9.220;2023-07-22T06:37:59;3.67;;;2.35;;
12441;SDS011;6285;48.804;9.220;2023-07-22T06:40:26;6.03;;;3.13;;
12441;SDS011;6285;48.804;9.220;2023-07-22T06:42:53;4.75;;;2.58;;
12441;SDS011;6285;48.804;9.220;2023-07-22T06:45:20;3.88;;;3.00;;
12441;SDS011;6285;48.804;9.220;2023-07-22T06:47:48;4.30;;;3.20;;
12441;SDS011;6285;48.804;9.220;2023-07-22T06:50:16;6.03;;;2.70;;
12441;SDS011;6285;48.804;9.220;2023-07-22T06:52:43;3.67;;;2.67;;
12441;SDS011;6285;48.804;9.220;2023-07-22T06:55:10;3.83;;;2.83;;
12441;SDS011;6285;48.804;9.220;2023-07-22T06:57:37;6.28;;;2.80;;
12441;SDS011;6285;48.804;9.220;2023-07-22T07:00:05;4.03;;;2.80;;
12441;SDS011;6285;48.804;9.220;2023-07-22T07:02:34;4.63;;;2.78;;
12441;SDS011;6285;48.804;9.220;2023-07-22T07:05:02;3.38;;;2.60;;
12441;SDS011;6285;48.804;9.220;2023-07-22T07:07:31;3.20;;;2.38;;
12441;SDS011;6285;48.804;9.220;2023-07-22T07:09:58;4.13;;;2.50;;
12441;SDS011;6285;48.804;9.220;2023-07-22T07:12:26;4.00;;;2.75;;
12441;SDS011;6285;48.804;9.220;2023-07-22T07:14:53;4.32;;;2.85;;
12441;SDS011;6285;48.804;9.220;2023-07-22T07:17:20;4.70;;;3.88;;
12441;SDS011;6285;48.804;9.220;2023-07-22T07:19:48;4.32;;;2.70;;
12441;SDS011;6285;48.804;9.220;2023-07-22T07:22:15;4.80;;;2.60;;
12441;SDS011;6285;48.804;9.220;2023-07-22T07:24:43;5.03;;;2.78;;
12441;SDS011;6285;48.804;9.220;2023-07-22T07:27:11;3.60;;;2.67;;
12441;SDS011;6285;48.804;9.220;2023-07-22T07:29:38;3.80;;;3.13;;
12441;SDS011;6285;48.804;9.220;2023-07-22T07:32:05;3.20;;;2.47;;
12441;SDS011;6285;48.804;9.220;2023-07-22T07:34:33;3.45;;;2.42;;
12441;SDS011;6285;48.804;9.220;2023-07-22T07:37:00;4.85;;;2.80;;
12441;SDS011;6285;48.804;9.220;2023-07-22T07:39:27;3.35;;;2.58;;
12441;SDS011;6285;48.804;9.220;2023-07-22T07:41:56;4.90;;;2.80;;
12441;SDS011;6285;48.804;9.220;2023-07-22T07:44:23;4.53;;;2.70;;
12441;SDS011;6285;48.804;9.220;2023-07-22T07:46:50;2.85;;;2.50;;
12441;SDS011;6285;48.804;9.220;2023-07-22T07:49:17;5.70;;;2.75;;
12441;SDS011;6285;48.804;9.220;2023-07-22T07:51:44;3.47;;;2.40;;
12441;SDS011;6285;48.804;9.220;2023-07-22T07:54:12;3.53;;;2.40;;
12441;SDS011;6285;48.804;9.220;2023-07-22T07:56:45;3.38;;;2.30;;
12441;SDS011;6285;48.804;9.220;2023-07-22T07:59:24;3.55;;;2.55;;
12441;SDS011;6285;48.804;9.220;2023-07-22T08:01:54;3.30;;;2.38;;
12441;SDS011;6285;48.804;9.220;2023-07-22T08:04:40;3.15;;;2.45;;
12441;SDS011;6285;48.804;9.220;2023-07-22T08:07:16;2.95;;;2.38;;
12441;SDS011;6285;48.804;9.220;2023-07-22T08:09:46;3.15;;;2.80;;
12441;SDS011;6285;48.804;9.220;2023-07-22T08:12:15;3.65;;;2.40;;
12441;SDS011;6285;48.804;9.220;2023-07-22T08:14:56;4.30;;;2.33;;
12441;SDS011;6285;48.804;9.220;2023-07-22T08:17:25;3.17;;;2.22;;
12441;SDS011;6285;48.804;9.220;2023-07-22T08:20:07;2.50;;;2.10;;
12441;SDS011;6285;48.804;9.220;2023-07-22T08:22:35;6.10;;;3.28;;
12441;SDS011;6285;48.804;9.220;2023-07-22T08:25:16;2.40;;;2.17;;
12441;SDS011;6285;48.804;9.220;2023-07-22T08:27:48;2.40;;;2.05;;
12441;SDS011;6285;48.804;9.220;2023-07-22T08:30:21;4.18;;;2.20;;
12441;SDS011;6285;48.804;9.220;2023-07-22T08:33:02;3.67;;;2.20;;
12441;SDS011;6285;48.804;9.220;2023-07-22T08:35:33;3.78;;;2.30;;
12441;SDS011;6285;48.804;9.220;2023-07-22T08:38:03;2.75;;;2.13;;
12441;SDS011;6285;48.804;9.220;2023-07-22T08:40:35;3.85;;;2.00;;
12441;SDS011;6285;48.804;9.220;2023-07-22T08:43:25;3.35;;;2.40;;
12441;SDS011;6285;48.804;9.220;2023-07-22T08:45:58;2.10;;;1.63;;
12441;SDS011;6285;48.804;9.220;2023-07-22T08:48:29;3.10;;;1.90;;
12441;SDS011;6285;48.804;9.220;2023-07-22T08:51:02;2.83;;;1.90;;
12441;SDS011;6285;48.804;9.220;2023-07-22T08:53:51;4.22;;;3.05;;
12441;SDS011;6285;48.804;9.220;2023-07-22T08:56:46;2.92;;;2.00;;
12441;SDS011;6285;48.804;9.220;2023-07-22T08:59:48;3.25;;;1.80;;
12441;SDS011;6285;48.804;9.220;2023-07-22T09:43:11;2.78;;;1.67;;
12441;SDS011;6285;48.804;9.220;2023-07-22T09:49:01;2.97;;;1.83;;
12441;SDS011;6285;48.804;9.220;2023-07-22T09:52:21;2.42;;;1.90;;
12441;SDS011;6285;48.804;9.220;2023-07-22T10:01:20;2.60;;;1.83;;
12441;SDS011;6285;48.804;9.220;2023-07-22T10:04:07;3.38;;;1.95;;
12441;SDS011;6285;48.804;9.220;2023-07-22T10:06:39;2.78;;;1.95;;
12441;SDS011;6285;48.804;9.220;2023-07-22T14:41:25;2.88;;;2.30;;
12441;SDS011;6285;48.804;9.220;2023-07-22T14:43:52;2.70;;;2.47;;
12441;SDS011;6285;48.804;9.220;2023-07-22T14:46:19;3.65;;;2.90;;
12441;SDS011;6285;48.804;9.220;2023-07-22T14:48:47;2.92;;;2.63;;
12441;SDS011;6285;48.804;9.220;2023-07-22T16:03:19;3.72;;;2.80;;
12441;SDS011;6285;48.804;9.220;2023-07-22T16:05:47;3.80;;;3.40;;
12441;SDS011;6285;48.804;9.220;2023-07-22T16:08:14;4.60;;;3.20;;
12441;SDS011;6285;48.804;9.220;2023-07-22T16:10:41;4.38;;;2.60;;
12441;SDS011;6285;48.804;9.220;2023-07-22T16:13:08;3.47;;;3.05;;
12441;SDS011;6285;48.804;9.220;2023-07-22T16:15:35;3.67;;;3.00;;
12441;SDS011;6285;48.804;9.220;2023-07-22T16:18:03;4.40;;;2.80;;
12441;SDS011;6285;48.804;9.220;2023-07-22T16:20:32;3.20;;;2.90;;
12441;SDS011;6285;48.804;9.220;2023-07-22T16:22:59;3.38;;;2.70;;
12441;SDS011;6285;48.804;9.220;2023-07-22T16:25:27;3.72;;;2.95;;
12441;SDS011;6285;48.804;9.220;2023-07-22T16:27:54;6.13;;;3.63;;
12441;SDS011;6285;48.804;9.220;2023-07-22T16:30:21;3.92;;;2.65;;
12441;SDS011;6285;48.804;9.220;2023-07-22T16:32:49;6.97;;;4.43;;
12441;SDS011;6285;48.804;9.220;2023-07-22T16:35:16;3.33;;;2.92;;
12441;SDS011;6285;48.804;9.220;2023-07-22T16:37:45;3.85;;;2.78;;
12441;SDS011;6285;48.804;9.220;2023-07-22T16:40:12;5.10;;;3.70;;
12441;SDS011;6285;48.804;9.220;2023-07-22T16:42:39;3.92;;;3.38;;
12441;SDS011;6285;48.804;9.220;2023-07-22T16:45:07;4.45;;;3.20;;
12441;SDS011;6285;48.804;9.220;2023-07-22T16:47:34;5.47;;;3.75;;
12441;SDS011;6285;48.804;9.220;2023-07-22T16:50:01;5.88;;;3.50;;
12441;SDS011;6285;48.804;9.220;2023-07-22T16:52:31;5.65;;;3.72;;
12441;SDS011;6285;48.804;9.220;2023-07-22T16:55:00;4.80;;;4.03;;
12441;SDS011;6285;48.804;9.220;2023-07-22T16:57:27;5.35;;;3.40;;
12441;SDS011;6285;48.804;9.220;2023-07-22T16:59:56;5.03;;;3.25;;
12441;SDS011;6285;48.804;9.220;2023-07-22T17:02:25;4.07;;;3.33;;
12441;SDS011;6285;48.804;9.220;2023-07-22T17:04:52;3.92;;;2.70;;
12441;SDS011;6285;48.804;9.220;2023-07-22T17:07:19;3.33;;;2.83;;
12441;SDS011;6285;48.804;9.220;2023-07-22T17:09:48;2.80;;;2.60;;
12441;SDS011;6285;48.804;9.220;2023-07-22T17:12:17;3.58;;;3.28;;
12441;SDS011;6285;48.804;9.220;2023-07-22T17:14:44;4.22;;;2.83;;
12441;SDS011;6285;48.804;9.220;2023-07-22T17:17:11;5.18;;;3.58;;
12441;SDS011;6285;48.804;9.220;2023-07-22T17:19:39;3.33;;;2.85;;
12441;SDS011;6285;48.804;9.220;2023-07-22T17:22:06;3.35;;;2.85;;
12441;SDS011;6285;48.804;9.220;2023-07-22T17:24:35;3.80;;;2.60;;
12441;SDS011;6285;48.804;9.220;2023-07-22T17:27:02;3.50;;;3.15;;
12441;SDS011;6285;48.804;9.220;2023-07-22T17:29:31;6.18;;;5.50;;
12441;SDS011;6285;48.804;9.220;2023-07-22T17:32:00;9.82;;;8.30;;
12441;SDS011;6285;48.804;9.220;2023-07-22T17:34:27;5.47;;;4.00;;
12441;SDS011;6285;48.804;9.220;2023-07-22T17:36:55;4.03;;;3.15;;
12441;SDS011;6285;48.804;9.220;2023-07-22T17:39:22;4.00;;;2.95;;
12441;SDS011;6285;48.804;9.220;2023-07-22T17:41:49;3.72;;;2.72;;
12441;SDS011;6285;48.804;9.220;2023-07-22T17:44:17;3.40;;;2.80;;
12441;SDS011;6285;48.804;9.220;2023-07-22T17:46:45;3.78;;;2.80;;
12441;SDS011;6285;48.804;9.220;2023-07-22T17:49:12;5.35;;;2.60;;
12441;SDS011;6285;48.804;9.220;2023-07-22T17:51:39;4.43;;;3.45;;
12441;SDS011;6285;48.804;9.220;2023-07-22T17:54:07;5.55;;;3.10;;
12441;SDS011;6285;48.804;9.220;2023-07-22T17:56:34;3.08;;;2.78;;
12441;SDS011;6285;48.804;9.220;2023-07-22T17:59:01;3.08;;;2.55;;
12441;SDS011;6285;48.804;9.220;2023-07-22T18:01:29;4.13;;;3.20;;
12441;SDS011;6285;48.804;9.220;2023-07-22T18:03:57;3.83;;;2.50;;
12441;SDS011;6285;48.804;9.220;2023-07-22T18:06:24;3.53;;;3.20;;
12441;SDS011;6285;48.804;9.220;2023-07-22T18:08:51;3.22;;;2.90;;
12441;SDS011;6285;48.804;9.220;2023-07-22T18:11:19;3.50;;;2.75;;
12441;SDS011;6285;48.804;9.220;2023-07-22T18:13:46;5.93;;;2.67;;
12441;SDS011;6285;48.804;9.220;2023-07-22T18:16:14;3.35;;;3.03;;
12441;SDS011;6285;48.804;9.220;2023-07-22T18:18:41;4.90;;;3.33;;
12441;SDS011;6285;48.804;9.220;2023-07-22T18:21:09;4.35;;;3.15;;
12441;SDS011;6285;48.804;9.220;2023-07-22T18:23:37;3.25;;;2.78;;
12441;SDS011;6285;48.804;9.220;2023-07-22T18:26:04;3.47;;;2.78;;
12441;SDS011;6285;48.804;9.220;2023-07-22T18:28:31;3.85;;;2.50;;
12441;SDS011;6285;48.804;9.220;2023-07-22T18:30:58;3.08;;;2.75;;
12441;SDS011;6285;48.804;9.220;2023-07-22T18:33:25;3.53;;;3.08;;
12441;SDS011;6285;48.804;9.220;2023-07-22T18:35:53;3.20;;;2.88;;
12441;SDS011;6285;48.804;9.220;2023-07-22T18:38:22;3.53;;;3.17;;
12441;SDS011;6285;48.804;9.220;2023-07-22T18:40:49;4.15;;;2.90;;
12441;SDS011;6285;48.804;9.220;2023-07-22T18:43:16;5.13;;;3.38;;
12441;SDS011;6285;48.804;9.220;2023-07-22T18:45:43;3.53;;;2.72;;
12441;SDS011;6285;48.804;9.220;2023-07-22T18:48:14;4.15;;;3.33;;
12441;SDS011;6285;48.804;9.220;2023-07-22T18:50:41;5.47;;;3.40;;
12441;SDS011;6285;48.804;9.220;2023-07-22T18:53:08;5.07;;;3.00;;
12441;SDS011;6285;48.804;9.220;2023-07-22T18:55:37;4.35;;;2.83;;
12441;SDS011;6285;48.804;9.220;2023-07-22T18:58:07;3.80;;;3.22;;
12441;SDS011;6285;48.804;9.220;2023-07-22T19:00:39;6.45;;;5.20;;
12441;SDS011;6285;48.804;9.220;2023-07-22T19:03:09;5.80;;;5.20;;
12441;SDS011;6285;48.804;9.220;2023-07-22T19:05:36;5.15;;;4.53;;
12441;SDS011;6285;48.804;9.220;2023-07-22T19:08:04;6.63;;;5.25;;
12441;SDS011;6285;48.804;9.220;2023-07-22T19:10:31;5.95;;;4.32;;
12441;SDS011;6285;48.804;9.220;2023-07-22T19:13:00;4.57;;;4.18;;
12441;SDS011;6285;48.804;9.220;2023-07-22T19:15:27;6.05;;;4.38;;
12441;SDS011;6285;48.804;9.220;2023-07-22T19:17:55;6.15;;;4.57;;
12441;SDS011;6285;48.804;9.220;2023-07-22T19:20:22;5.55;;;4.07;;
12441;SDS011;6285;48.804;9.220;2023-07-22T19:22:50;8.27;;;5.13;;
12441;SDS011;6285;48.804;9.220;2023-07-22T19:25:17;5.90;;;5.00;;
12441;SDS011;6285;48.804;9.220;2023-07-22T19:27:44;6.10;;;4.60;;
12441;SDS011;6285;48.804;9.220;2023-07-22T19:30:12;6.30;;;5.47;;
12441;SDS011;6285;48.804;9.220;2023-07-22T19:32:39;7.70;;;5.78;;
12441;SDS011;6285;48.804;9.220;2023-07-22T19:35:07;7.75;;;6.40;;
12441;SDS011;6285;48.804;9.220;2023-07-22T19:37:34;7.25;;;5.57;;
12441;SDS011;6285;48.804;9.220;2023-07-22T19:40:01;6.90;;;5.47;;
12441;SDS011;6285;48.804;9.220;2023-07-22T19:42:29;5.43;;;4.93;;
12441;SDS011;6285;48.804;9.220;2023-07-22T19:44:56;6.00;;;5.28;;
12441;SDS011;6285;48.804;9.220;2023-07-22T19:47:24;7.75;;;5.53;;
12441;SDS011;6285;48.804;9.220;2023-07-22T19:49:52;5.82;;;4.78;;
12441;SDS011;6285;48.804;9.220;2023-07-22T19:52:19;7.85;;;6.07;;
12441;SDS011;6285;48.804;9.220;2023-07-22T19:54:46;7.70;;;6.32;;
12441;SDS011;6285;48.804;9.220;2023-07-22T19:57:13;7.97;;;6.93;;
12441;SDS011;6285;48.804;9.220;2023-07-22T19:59:40;10.23;;;5.85;;
12441;SDS011;6285;48.804;9.220;2023-07-22T20:02:10;9.65;;;6.93;;
12441;SDS011;6285;48.804;9.220;2023-07-22T20:04:39;8.20;;;5.80;;
12441;SDS011;6285;48.804;9.220;2023-07-22T20:07:06;8.27;;;6.72;;
12441;SDS011;6285;48.804;9.220;2023-07-22T20:09:33;8.80;;;6.80;;
12441;SDS011;6285;48.804;9.220;2023-07-22T20:12:00;13.02;;;7.82;;
12441;SDS011;6285;48.804;9.220;2023-07-22T20:14:28;25.20;;;18.15;;
12441;SDS011;6285;48.804;9.220;2023-07-22T20:16:55;35.78;;;27.15;;
12441;SDS011;6285;48.804;9.220;2023-07-22T20:19:22;23.45;;;16.77;;
12441;SDS011;6285;48.804;9.220;2023-07-22T20:21:52;25.17;;;17.08;;
12441;SDS011;6285;48.804;9.220;2023-07-22T20:24:19;22.45;;;15.38;;
12441;SDS011;6285;48.804;9.220;2023-07-22T20:26:46;12.68;;;9.50;;
12441;SDS011;6285;48.804;9.220;2023-07-22T20:29:13;17.90;;;14.07;;
12441;SDS011;6285;48.804;9.220;2023-07-22T20:31:41;15.80;;;11.27;;
12441;SDS011;6285;48.804;9.220;2023-07-22T20:34:13;12.13;;;10.05;;
12441;SDS011;6285;48.804;9.220;2023-07-22T20:36:49;12.38;;;10.27;;
12441;SDS011;6285;48.804;9.220;2023-07-22T20:39:19;11.25;;;10.07;;
12441;SDS011;6285;48.804;9.220;2023-07-22T20:41:48;10.43;;;7.93;;
12441;SDS011;6285;48.804;9.220;2023-07-22T20:44:15;7.63;;;5.97;;
12441;SDS011;6285;48.804;9.220;2023-07-22T20:46:43;6.75;;;6.05;;
12441;SDS011;6285;48.804;9.220;2023-07-22T20:49:10;6.78;;;5.00;;
12441;SDS011;6285;48.804;9.220;2023-07-22T20:51:37;5.82;;;4.68;;
12441;SDS011;6285;48.804;9.220;2023-07-22T20:54:04;5.75;;;5.15;;
12441;SDS011;6285;48.804;9.220;2023-07-22T20:56:33;6.07;;;4.78;;
12441;SDS011;6285;48.804;9.220;2023-07-22T20:59:00;5.90;;;5.10;;
12441;SDS011;6285;48.804;9.220;2023-07-22T21:01:27;7.68;;;4.50;;
12441;SDS011;6285;48.804;9.220;2023-07-22T21:03:54;8.00;;;5.10;;
12441;SDS011;6285;48.804;9.220;2023-07-22T21:06:21;9.45;;;4.97;;
12441;SDS011;6285;48.804;9.220;2023-07-22T21:08:51;9.23;;;5.72;;
12441;SDS011;6285;48.804;9.220;2023-07-22T21:11:18;6.75;;;5.10;;
12441;SDS011;6285;48.804;9.220;2023-07-22T21:13:47;9.02;;;4.93;;
12441;SDS011;6285;48.804;9.220;2023-07-22T21:16:14;8.88;;;4.90;;
12441;SDS011;6285;48.804;9.220;2023-07-22T21:18:41;8.45;;;4.63;;
12441;SDS011;6285;48.804;9.220;2023-07-22T21:21:08;9.30;;;4.80;;
12441;SDS011;6285;48.804;9.220;2023-07-22T21:23:40;6.10;;;4.60;;
12441;SDS011;6285;48.804;9.220;2023-07-22T21:26:07;7.03;;;4.45;;
12441;SDS011;6285;48.804;9.220;2023-07-22T21:28:34;6.53;;;4.75;;
12441;SDS011;6285;48.804;9.220;2023-07-22T21:31:03;8.55;;;4.55;;
12441;SDS011;6285;48.804;9.220;2023-07-22T21:33:30;6.70;;;4.65;;
12441;SDS011;6285;48.804;9.220;2023-07-22T21:35:57;5.95;;;4.78;;
12441;SDS011;6285;48.804;9.220;2023-07-22T21:38:24;8.77;;;4.28;;
12441;SDS011;6285;48.804;9.220;2023-07-22T21:40:52;6.28;;;4.60;;
12441;SDS011;6285;48.804;9.220;2023-07-22T21:43:20;9.00;;;4.60;;
12441;SDS011;6285;48.804;9.220;2023-07-22T21:45:47;7.30;;;4.25;;